sensor_id;sensor_type;location;lat;lon;timestamp;noise_LAeq;noise_LA_min;noise_LA_max;noise_LA01;noise_LA95
67310;Laerm;65444;51.438;5.982;2023-06-14T00:00:05;38.55;34.05;43.44;;
67310;Laerm;65444;51.438;5.982;2023-06-14T00:00:17;39.84;34.58;44.75;;
67310;Laerm;65444;51.438;5.982;2023-06-14T00:00:28;38.02;33.07;42.73;;
67310;Laerm;65444;51.438;5.982;2023-06-14T00:00:38;37.55;33.50;42.84;;
67310;Laerm;65444;51.438;5.982;2023-06-14T00:00:51;37.63;32.92;42.92;;
67310;Laerm;65444;51.438;5.982;2023-06-14T00:01:03;41.17;34.88;45.48;;
67310;Laerm;65444;51.438;5.982;2023-06-14T00:01:16;40.23;36.36;44.74;;
67310;Laerm;65444;51.438;5.982;2023-06-14T00:01:27;39.91;36.45;42.98;;
67310;Laerm;65444;51.438;5.982;2023-06-14T00:01:37;37.67;35.68;41.62;;
67310;Laerm;65444;51.438;5.982;2023-06-14T00:01:48;38.49;35.04;43.94;;
67310;Laerm;65444;51.438;5.982;2023-06-14T00:01:58;36.23;33.44;38.61;;
67310;Laerm;65444;51.438;5.982;2023-06-14T00:02:09;38.97;34.48;42.98;;
67310;Laerm;65444;51.438;5.982;2023-06-14T00:02:19;46.51;35.81;58.73;;
67310;Laerm;65444;51.438;5.982;2023-06-14T00:02:30;47.56;34.37;59.73;;
67310;Laerm;65444;51.438;5.982;2023-06-14T00:02:40;39.40;33.61;44.09;;
67310;Laerm;65444;51.438;5.982;2023-06-14T00:02:51;37.72;33.91;41.29;;
67310;Laerm;65444;51.438;5.982;2023-06-14T00:03:02;39.38;34.33;49.10;;
67310;Laerm;65444;51.438;5.982;2023-06-14T00:03:13;37.54;33.94;44.93;;
67310;Laerm;65444;51.438;5.982;2023-06-14T00:03:27;39.32;34.96;42.83;;
67310;Laerm;65444;51.438;5.982;2023-06-14T00:03:38;40.17;35.40;43.17;;
67310;Laerm;65444;51.438;5.982;2023-06-14T00:03:49;40.47;35.14;44.19;;
67310;Laerm;65444;51.438;5.982;2023-06-14T00:04:00;41.48;37.42;45.09;;
67310;Laerm;65444;51.438;5.982;2023-06-14T00:04:11;42.24;38.77;45.72;;
67310;Laerm;65444;51.438;5.982;2023-06-14T00:04:22;40.95;37.95;44.67;;
67310;Laerm;65444;51.438;5.982;2023-06-14T00:04:35;38.92;35.46;42.98;;
67310;Laerm;65444;51.438;5.982;2023-06-14T00:04:58;40.00;34.37;44.81;;
67310;Laerm;65444;51.438;5.982;2023-06-14T00:05:09;43.98;33.72;59.30;;
67310;Laerm;65444;51.438;5.982;2023-06-14T00:05:25;36.10;32.09;41.90;;
67310;Laerm;65444;51.438;5.982;2023-06-14T00:05:36;34.35;31.44;38.87;;
67310;Laerm;65444;51.438;5.982;2023-06-14T00:05:52;33.87;31.90;38.78;;
67310;Laerm;65444;51.438;5.982;2023-06-14T00:06:03;34.51;31.75;39.43;;
67310;Laerm;65444;51.438;5.982;2023-06-14T00:06:16;35.22;32.10;38.39;;
67310;Laerm;65444;51.438;5.982;2023-06-14T00:06:28;36.95;31.22;42.12;;
67310;Laerm;65444;51.438;5.982;2023-06-14T00:06:39;39.80;32.51;46.72;;
67310;Laerm;65444;51.438;5.982;2023-06-14T00:06:49;41.49;33.02;51.81;;
67310;Laerm;65444;51.438;5.982;2023-06-14T00:07:00;45.56;32.59;58.59;;
67310;Laerm;65444;51.438;5.982;2023-06-14T00:07:11;34.98;30.54;41.67;;
67310;Laerm;65444;51.438;5.982;2023-06-14T00:07:33;32.19;30.37;33.99;;
67310;Laerm;65444;51.438;5.982;2023-06-14T00:07:44;33.74;30.69;36.41;;
67310;Laerm;65444;51.438;5.982;2023-06-14T00:07:54;34.53;31.75;37.71;;
67310;Laerm;65444;51.438;5.982;2023-06-14T00:08:04;37.59;33.75;42.23;;
67310;Laerm;65444;51.438;5.982;2023-06-14T00:08:20;40.11;34.87;44.29;;
67310;Laerm;65444;51.438;5.982;2023-06-14T00:08:32;39.74;35.20;43.98;;
67310;Laerm;65444;51.438;5.982;2023-06-14T00:08:43;38.54;35.59;41.96;;
67310;Laerm;65444;51.438;5.982;2023-06-14T00:08:56;38.65;34.50;43.18;;
67310;Laerm;65444;51.438;5.982;2023-06-14T00:09:06;43.66;35.29;56.18;;
67310;Laerm;65444;51.438;5.982;2023-06-14T00:09:18;40.67;32.27;55.41;;
67310;Laerm;65444;51.438;5.982;2023-06-14T00:09:29;34.55;31.75;37.55;;
67310;Laerm;65444;51.438;5.982;2023-06-14T00:09:39;33.61;31.88;35.98;;
67310;Laerm;65444;51.438;5.982;2023-06-14T00:09:50;33.55;30.85;37.25;;
67310;Laerm;65444;51.438;5.982;2023-06-14T00:10:00;35.61;32.05;41.01;;
67310;Laerm;65444;51.438;5.982;2023-06-14T00:10:11;38.61;34.44;43.02;;
67310;Laerm;65444;51.438;5.982;2023-06-14T00:10:22;38.84;30.95;44.17;;
67310;Laerm;65444;51.438;5.982;2023-06-14T00:10:32;39.67;33.01;44.79;;
67310;Laerm;65444;51.438;5.982;2023-06-14T00:10:45;39.12;33.09;42.81;;
67310;Laerm;65444;51.438;5.982;2023-06-14T00:10:55;38.29;32.25;42.45;;
67310;Laerm;65444;51.438;5.982;2023-06-14T00:11:06;37.58;31.47;43.47;;
67310;Laerm;65444;51.438;5.982;2023-06-14T00:11:16;37.10;31.16;43.52;;
67310;Laerm;65444;51.438;5.982;2023-06-14T00:11:27;35.62;30.76;40.79;;
67310;Laerm;65444;51.438;5.982;2023-06-14T00:11:37;41.48;30.44;53.93;;
67310;Laerm;65444;51.438;5.982;2023-06-14T00:11:48;43.57;32.31;57.13;;
67310;Laerm;65444;51.438;5.982;2023-06-14T00:11:58;36.75;30.86;41.55;;
67310;Laerm;65444;51.438;5.982;2023-06-14T00:12:11;37.58;33.01;41.42;;
67310;Laerm;65444;51.438;5.982;2023-06-14T00:12:22;36.97;30.28;46.81;;
67310;Laerm;65444;51.438;5.982;2023-06-14T00:12:34;35.11;30.39;41.72;;
67310;Laerm;65444;51.438;5.982;2023-06-14T00:12:45;38.68;33.28;43.66;;
67310;Laerm;65444;51.438;5.982;2023-06-14T00:12:55;38.75;31.05;46.02;;
67310;Laerm;65444;51.438;5.982;2023-06-14T00:13:06;38.98;32.11;49.47;;
67310;Laerm;65444;51.438;5.982;2023-06-14T00:13:17;36.71;32.05;42.67;;
67310;Laerm;65444;51.438;5.982;2023-06-14T00:13:27;37.43;31.18;42.43;;
67310;Laerm;65444;51.438;5.982;2023-06-14T00:13:38;38.25;30.95;42.48;;
67310;Laerm;65444;51.438;5.982;2023-06-14T00:13:49;38.90;32.20;43.00;;
67310;Laerm;65444;51.438;5.982;2023-06-14T00:13:59;45.89;33.30;57.92;;
67310;Laerm;65444;51.438;5.982;2023-06-14T00:14:10;44.76;30.72;59.77;;
67310;Laerm;65444;51.438;5.982;2023-06-14T00:14:20;37.24;31.55;42.15;;
67310;Laerm;65444;51.438;5.982;2023-06-14T00:14:31;38.17;30.74;43.00;;
67310;Laerm;65444;51.438;5.982;2023-06-14T00:14:41;36.73;30.64;42.32;;
67310;Laerm;65444;51.438;5.982;2023-06-14T00:14:52;33.88;30.39;39.14;;
67310;Laerm;65444;51.438;5.982;2023-06-14T00:15:03;36.54;30.25;42.28;;
67310;Laerm;65444;51.438;5.982;2023-06-14T00:15:13;38.64;30.58;43.54;;
67310;Laerm;65444;51.438;5.982;2023-06-14T00:15:23;39.72;30.67;45.29;;
67310;Laerm;65444;51.438;5.982;2023-06-14T00:15:34;37.96;31.40;43.20;;
67310;Laerm;65444;51.438;5.982;2023-06-14T00:15:45;45.77;33.63;58.82;;
67310;Laerm;65444;51.438;5.982;2023-06-14T00:15:56;46.95;31.15;61.00;;
67310;Laerm;65444;51.438;5.982;2023-06-14T00:16:06;37.03;31.02;42.64;;
67310;Laerm;65444;51.438;5.982;2023-06-14T00:16:18;37.98;31.06;43.67;;
67310;Laerm;65444;51.438;5.982;2023-06-14T00:16:29;37.32;30.86;43.14;;
67310;Laerm;65444;51.438;5.982;2023-06-14T00:16:40;36.23;31.02;41.34;;
67310;Laerm;65444;51.438;5.982;2023-06-14T00:16:52;38.92;31.56;44.95;;
67310;Laerm;65444;51.438;5.982;2023-06-14T00:17:03;39.99;31.88;45.17;;
67310;Laerm;65444;51.438;5.982;2023-06-14T00:17:13;34.23;30.96;40.59;;
67310;Laerm;65444;51.438;5.982;2023-06-14T00:17:26;32.49;30.65;35.79;;
67310;Laerm;65444;51.438;5.982;2023-06-14T00:17:40;33.45;31.30;36.35;;
67310;Laerm;65444;51.438;5.982;2023-06-14T00:17:50;32.59;30.47;34.66;;
67310;Laerm;65444;51.438;5.982;2023-06-14T00:18:01;32.65;30.01;35.54;;
67310;Laerm;65444;51.438;5.982;2023-06-14T00:18:11;36.32;31.54;43.40;;
67310;Laerm;65444;51.438;5.982;2023-06-14T00:18:22;38.87;31.87;44.71;;
67310;Laerm;65444;51.438;5.982;2023-06-14T00:18:39;37.68;31.13;43.47;;
67310;Laerm;65444;51.438;5.982;2023-06-14T00:18:50;32.34;30.66;34.06;;
67310;Laerm;65444;51.438;5.982;2023-06-14T00:19:04;32.30;29.76;35.52;;
67310;Laerm;65444;51.438;5.982;2023-06-14T00:19:14;36.81;30.52;41.04;;
67310;Laerm;65444;51.438;5.982;2023-06-14T00:19:26;39.26;31.30;45.87;;
67310;Laerm;65444;51.438;5.982;2023-06-14T00:19:52;47.88;32.54;59.33;;
67310;Laerm;65444;51.438;5.982;2023-06-14T00:20:03;32.84;31.11;34.59;;
67310;Laerm;65444;51.438;5.982;2023-06-14T00:20:18;31.65;29.53;33.25;;
67310;Laerm;65444;51.438;5.982;2023-06-14T00:20:30;32.05;29.94;35.85;;
67310;Laerm;65444;51.438;5.982;2023-06-14T00:20:42;35.97;30.70;42.60;;
67310;Laerm;65444;51.438;5.982;2023-06-14T00:20:53;39.70;32.19;45.11;;
67310;Laerm;65444;51.438;5.982;2023-06-14T00:21:06;39.04;30.54;44.24;;
67310;Laerm;65444;51.438;5.982;2023-06-14T00:21:17;45.04;30.78;59.52;;
67310;Laerm;65444;51.438;5.982;2023-06-14T00:21:27;43.86;30.85;60.10;;
67310;Laerm;65444;51.438;5.982;2023-06-14T00:21:39;33.63;31.76;35.69;;
67310;Laerm;65444;51.438;5.982;2023-06-14T00:21:51;32.03;30.83;33.63;;
67310;Laerm;65444;51.438;5.982;2023-06-14T00:22:03;32.37;30.81;33.72;;
67310;Laerm;65444;51.438;5.982;2023-06-14T00:22:13;32.42;30.56;35.11;;
67310;Laerm;65444;51.438;5.982;2023-06-14T00:22:24;37.39;32.13;44.29;;
67310;Laerm;65444;51.438;5.982;2023-06-14T00:22:39;39.07;31.82;44.75;;
67310;Laerm;65444;51.438;5.982;2023-06-14T00:22:49;35.28;30.70;44.35;;
67310;Laerm;65444;51.438;5.982;2023-06-14T00:23:00;32.04;30.15;36.61;;
67310;Laerm;65444;51.438;5.982;2023-06-14T00:23:11;32.02;30.62;36.84;;
67310;Laerm;65444;51.438;5.982;2023-06-14T00:23:22;32.22;30.54;33.81;;
67310;Laerm;65444;51.438;5.982;2023-06-14T00:23:32;32.12;30.39;35.65;;
67310;Laerm;65444;51.438;5.982;2023-06-14T00:23:42;36.09;30.99;40.67;;
67310;Laerm;65444;51.438;5.982;2023-06-14T00:23:53;39.37;32.54;44.81;;
67310;Laerm;65444;51.438;5.982;2023-06-14T00:24:03;35.54;30.77;49.73;;
67310;Laerm;65444;51.438;5.982;2023-06-14T00:24:14;32.99;30.86;37.04;;
67310;Laerm;65444;51.438;5.982;2023-06-14T00:24:24;31.89;30.55;33.19;;
67310;Laerm;65444;51.438;5.982;2023-06-14T00:24:35;32.20;30.59;33.73;;
67310;Laerm;65444;51.438;5.982;2023-06-14T00:24:45;32.68;31.00;35.34;;
67310;Laerm;65444;51.438;5.982;2023-06-14T00:24:55;32.45;30.75;34.38;;
67310;Laerm;65444;51.438;5.982;2023-06-14T00:25:06;32.48;31.08;37.13;;
67310;Laerm;65444;51.438;5.982;2023-06-14T00:25:16;32.50;30.04;38.34;;
67310;Laerm;65444;51.438;5.982;2023-06-14T00:25:27;35.77;32.63;41.65;;
67310;Laerm;65444;51.438;5.982;2023-06-14T00:25:37;32.90;30.99;36.76;;
67310;Laerm;65444;51.438;5.982;2023-06-14T00:25:48;33.78;31.83;35.67;;
67310;Laerm;65444;51.438;5.982;2023-06-14T00:25:58;34.15;32.30;42.48;;
67310;Laerm;65444;51.438;5.982;2023-06-14T00:26:08;34.55;32.85;36.06;;
67310;Laerm;65444;51.438;5.982;2023-06-14T00:26:19;36.94;33.69;40.31;;
67310;Laerm;65444;51.438;5.982;2023-06-14T00:26:29;38.39;36.13;43.07;;
67310;Laerm;65444;51.438;5.982;2023-06-14T00:26:40;42.17;37.77;47.31;;
67310;Laerm;65444;51.438;5.982;2023-06-14T00:26:50;40.56;35.52;46.66;;
67310;Laerm;65444;51.438;5.982;2023-06-14T00:27:00;40.57;36.33;45.13;;
67310;Laerm;65444;51.438;5.982;2023-06-14T00:27:10;36.65;34.09;43.50;;
67310;Laerm;65444;51.438;5.982;2023-06-14T00:27:21;37.60;34.39;50.32;;
67310;Laerm;65444;51.438;5.982;2023-06-14T00:27:31;39.36;34.61;52.31;;
67310;Laerm;65444;51.438;5.982;2023-06-14T00:27:42;36.03;33.19;38.62;;
67310;Laerm;65444;51.438;5.982;2023-06-14T00:27:53;34.95;31.58;38.49;;
67310;Laerm;65444;51.438;5.982;2023-06-14T00:28:04;33.45;31.15;36.31;;
67310;Laerm;65444;51.438;5.982;2023-06-14T00:28:14;33.11;31.29;35.17;;
67310;Laerm;65444;51.438;5.982;2023-06-14T00:28:25;32.75;31.06;34.63;;
67310;Laerm;65444;51.438;5.982;2023-06-14T00:28:35;32.80;30.80;34.93;;
67310;Laerm;65444;51.438;5.982;2023-06-14T00:28:46;34.45;31.57;38.12;;
67310;Laerm;65444;51.438;5.982;2023-06-14T00:28:56;33.24;31.04;35.53;;
67310;Laerm;65444;51.438;5.982;2023-06-14T00:29:06;32.92;30.99;35.24;;
67310;Laerm;65444;51.438;5.982;2023-06-14T00:29:17;32.70;30.85;35.95;;
67310;Laerm;65444;51.438;5.982;2023-06-14T00:29:27;32.63;30.64;35.12;;
67310;Laerm;65444;51.438;5.982;2023-06-14T00:29:37;33.01;31.26;36.89;;
67310;Laerm;65444;51.438;5.982;2023-06-14T00:29:48;35.44;30.93;45.35;;
67310;Laerm;65444;51.438;5.982;2023-06-14T00:29:58;36.62;32.00;42.32;;
67310;Laerm;65444;51.438;5.982;2023-06-14T00:30:08;36.14;30.74;40.96;;
67310;Laerm;65444;51.438;5.982;2023-06-14T00:30:19;32.88;31.04;34.87;;
67310;Laerm;65444;51.438;5.982;2023-06-14T00:30:30;33.29;31.47;35.15;;
67310;Laerm;65444;51.438;5.982;2023-06-14T00:30:40;32.84;31.36;34.30;;
67310;Laerm;65444;51.438;5.982;2023-06-14T00:30:51;33.40;31.46;35.22;;
67310;Laerm;65444;51.438;5.982;2023-06-14T00:31:01;32.97;31.08;34.88;;
67310;Laerm;65444;51.438;5.982;2023-06-14T00:31:12;34.34;31.61;40.93;;
67310;Laerm;65444;51.438;5.982;2023-06-14T00:31:22;33.23;31.31;36.44;;
67310;Laerm;65444;51.438;5.982;2023-06-14T00:31:33;34.01;32.31;37.15;;
67310;Laerm;65444;51.438;5.982;2023-06-14T00:31:43;33.58;32.32;35.19;;
67310;Laerm;65444;51.438;5.982;2023-06-14T00:31:56;33.83;31.75;36.49;;
67310;Laerm;65444;51.438;5.982;2023-06-14T00:32:07;34.48;32.83;35.87;;
67310;Laerm;65444;51.438;5.982;2023-06-14T00:32:18;34.17;31.78;37.01;;
67310;Laerm;65444;51.438;5.982;2023-06-14T00:32:28;33.94;31.63;36.70;;
67310;Laerm;65444;51.438;5.982;2023-06-14T00:32:38;33.31;31.48;34.75;;
67310;Laerm;65444;51.438;5.982;2023-06-14T00:32:49;34.63;32.11;39.20;;
67310;Laerm;65444;51.438;5.982;2023-06-14T00:33:00;34.20;32.42;37.78;;
67310;Laerm;65444;51.438;5.982;2023-06-14T00:33:10;33.09;31.22;37.46;;
67310;Laerm;65444;51.438;5.982;2023-06-14T00:33:21;35.39;32.21;43.37;;
67310;Laerm;65444;51.438;5.982;2023-06-14T00:33:31;43.55;33.72;55.73;;
67310;Laerm;65444;51.438;5.982;2023-06-14T00:33:41;48.69;32.64;59.72;;
67310;Laerm;65444;51.438;5.982;2023-06-14T00:33:52;46.93;31.61;59.78;;
67310;Laerm;65444;51.438;5.982;2023-06-14T00:34:03;35.51;31.79;41.96;;
67310;Laerm;65444;51.438;5.982;2023-06-14T00:34:13;36.36;31.63;42.97;;
67310;Laerm;65444;51.438;5.982;2023-06-14T00:34:24;38.98;32.82;45.38;;
67310;Laerm;65444;51.438;5.982;2023-06-14T00:34:34;33.62;31.14;42.78;;
67310;Laerm;65444;51.438;5.982;2023-06-14T00:34:45;32.11;30.76;33.54;;
67310;Laerm;65444;51.438;5.982;2023-06-14T00:34:55;32.20;30.69;33.84;;
67310;Laerm;65444;51.438;5.982;2023-06-14T00:35:06;32.89;30.91;34.92;;
67310;Laerm;65444;51.438;5.982;2023-06-14T00:35:18;36.23;32.25;40.36;;
67310;Laerm;65444;51.438;5.982;2023-06-14T00:35:28;34.89;31.25;40.85;;
67310;Laerm;65444;51.438;5.982;2023-06-14T00:35:38;32.11;30.36;33.66;;
67310;Laerm;65444;51.438;5.982;2023-06-14T00:35:49;32.67;31.12;34.82;;
67310;Laerm;65444;51.438;5.982;2023-06-14T00:36:00;33.23;31.44;39.16;;
67310;Laerm;65444;51.438;5.982;2023-06-14T00:36:10;33.92;31.16;40.68;;
67310;Laerm;65444;51.438;5.982;2023-06-14T00:36:21;33.73;31.94;39.79;;
67310;Laerm;65444;51.438;5.982;2023-06-14T00:36:31;32.29;30.44;34.34;;
67310;Laerm;65444;51.438;5.982;2023-06-14T00:36:42;34.11;31.01;41.11;;
67310;Laerm;65444;51.438;5.982;2023-06-14T00:36:52;33.83;31.24;39.08;;
67310;Laerm;65444;51.438;5.982;2023-06-14T00:37:03;37.11;32.76;46.65;;
67310;Laerm;65444;51.438;5.982;2023-06-14T00:37:13;48.34;33.67;61.40;;
67310;Laerm;65444;51.438;5.982;2023-06-14T00:37:24;48.23;32.91;63.01;;
67310;Laerm;65444;51.438;5.982;2023-06-14T00:37:34;33.53;31.14;35.42;;
67310;Laerm;65444;51.438;5.982;2023-06-14T00:37:44;32.97;30.33;35.43;;
67310;Laerm;65444;51.438;5.982;2023-06-14T00:37:55;32.30;30.51;35.50;;
67310;Laerm;65444;51.438;5.982;2023-06-14T00:38:05;32.11;30.39;33.79;;
67310;Laerm;65444;51.438;5.982;2023-06-14T00:38:16;32.71;31.24;36.90;;
67310;Laerm;65444;51.438;5.982;2023-06-14T00:38:26;32.98;30.97;34.87;;
67310;Laerm;65444;51.438;5.982;2023-06-14T00:38:36;31.75;30.39;33.34;;
67310;Laerm;65444;51.438;5.982;2023-06-14T00:38:47;31.43;30.07;32.81;;
67310;Laerm;65444;51.438;5.982;2023-06-14T00:38:57;32.25;30.62;35.00;;
67310;Laerm;65444;51.438;5.982;2023-06-14T00:39:08;32.47;30.17;34.72;;
67310;Laerm;65444;51.438;5.982;2023-06-14T00:39:29;32.94;30.26;42.05;;
67310;Laerm;65444;51.438;5.982;2023-06-14T00:39:40;35.80;30.15;44.12;;
67310;Laerm;65444;51.438;5.982;2023-06-14T00:39:50;38.32;31.79;44.29;;
67310;Laerm;65444;51.438;5.982;2023-06-14T00:40:00;40.02;31.85;46.66;;
67310;Laerm;65444;51.438;5.982;2023-06-14T00:40:31;32.01;30.17;39.56;;
67310;Laerm;65444;51.438;5.982;2023-06-14T00:40:42;32.38;30.76;34.08;;
67310;Laerm;65444;51.438;5.982;2023-06-14T00:40:52;31.58;30.29;33.25;;
67310;Laerm;65444;51.438;5.982;2023-06-14T00:41:02;32.15;30.71;33.56;;
67310;Laerm;65444;51.438;5.982;2023-06-14T00:41:13;32.15;30.81;33.92;;
67310;Laerm;65444;51.438;5.982;2023-06-14T00:41:24;32.97;31.03;36.03;;
67310;Laerm;65444;51.438;5.982;2023-06-14T00:41:35;34.81;30.81;41.08;;
67310;Laerm;65444;51.438;5.982;2023-06-14T00:41:46;37.52;31.60;45.57;;
67310;Laerm;65444;51.438;5.982;2023-06-14T00:41:56;44.80;33.10;57.17;;
67310;Laerm;65444;51.438;5.982;2023-06-14T00:42:07;47.05;30.62;61.23;;
67310;Laerm;65444;51.438;5.982;2023-06-14T00:42:49;32.49;30.21;34.67;;
67310;Laerm;65444;51.438;5.982;2023-06-14T00:42:59;32.76;31.29;34.09;;
67310;Laerm;65444;51.438;5.982;2023-06-14T00:43:11;33.44;30.61;36.85;;
67310;Laerm;65444;51.438;5.982;2023-06-14T00:43:22;35.66;30.38;46.62;;
67310;Laerm;65444;51.438;5.982;2023-06-14T00:43:32;38.13;31.82;44.26;;
67310;Laerm;65444;51.438;5.982;2023-06-14T00:43:44;39.25;31.23;46.21;;
67310;Laerm;65444;51.438;5.982;2023-06-14T00:43:55;33.39;31.58;34.91;;
67310;Laerm;65444;51.438;5.982;2023-06-14T00:44:42;32.52;30.41;44.96;;
67310;Laerm;65444;51.438;5.982;2023-06-14T00:44:52;32.78;31.22;34.53;;
67310;Laerm;65444;51.438;5.982;2023-06-14T00:45:03;32.60;30.92;34.23;;
67310;Laerm;65444;51.438;5.982;2023-06-14T00:45:49;37.55;29.98;46.17;;
67310;Laerm;65444;51.438;5.982;2023-06-14T00:46:01;40.36;32.91;44.63;;
67310;Laerm;65444;51.438;5.982;2023-06-14T00:46:12;33.40;31.72;39.44;;
67310;Laerm;65444;51.438;5.982;2023-06-14T00:46:22;31.98;30.21;34.80;;
67310;Laerm;65444;51.438;5.982;2023-06-14T00:46:32;32.41;31.17;34.36;;
67310;Laerm;65444;51.438;5.982;2023-06-14T00:46:44;32.58;30.50;36.41;;
67310;Laerm;65444;51.438;5.982;2023-06-14T00:47:19;45.33;30.85;59.35;;
67310;Laerm;65444;51.438;5.982;2023-06-14T00:47:29;47.96;30.82;60.66;;
67310;Laerm;65444;51.438;5.982;2023-06-14T00:47:40;35.96;30.62;43.41;;
67310;Laerm;65444;51.438;5.982;2023-06-14T00:47:58;32.67;30.57;41.60;;
67310;Laerm;65444;51.438;5.982;2023-06-14T00:48:08;32.70;30.87;34.88;;
67310;Laerm;65444;51.438;5.982;2023-06-14T00:48:19;32.39;30.59;34.36;;
67310;Laerm;65444;51.438;5.982;2023-06-14T00:48:30;33.00;30.57;40.88;;
67310;Laerm;65444;51.438;5.982;2023-06-14T00:48:42;37.38;31.38;43.29;;
67310;Laerm;65444;51.438;5.982;2023-06-14T00:48:52;39.61;31.68;45.68;;
67310;Laerm;65444;51.438;5.982;2023-06-14T00:49:04;39.49;32.87;44.46;;
67310;Laerm;65444;51.438;5.982;2023-06-14T00:49:15;47.16;33.05;60.53;;
67310;Laerm;65444;51.438;5.982;2023-06-14T00:49:26;45.54;33.04;60.50;;
67310;Laerm;65444;51.438;5.982;2023-06-14T00:49:36;37.03;31.44;43.25;;
67310;Laerm;65444;51.438;5.982;2023-06-14T00:49:48;37.93;31.63;44.00;;
67310;Laerm;65444;51.438;5.982;2023-06-14T00:49:58;40.18;32.24;47.12;;
67310;Laerm;65444;51.438;5.982;2023-06-14T00:50:23;36.72;31.38;44.43;;
67310;Laerm;65444;51.438;5.982;2023-06-14T00:50:33;37.31;30.84;48.51;;
67310;Laerm;65444;51.438;5.982;2023-06-14T00:50:44;41.51;33.29;52.30;;
67310;Laerm;65444;51.438;5.982;2023-06-14T00:50:59;45.55;32.57;59.90;;
67310;Laerm;65444;51.438;5.982;2023-06-14T00:52:02;37.32;33.15;44.64;;
67310;Laerm;65444;51.438;5.982;2023-06-14T00:52:14;37.82;35.61;40.15;;
67310;Laerm;65444;51.438;5.982;2023-06-14T00:52:24;39.64;37.63;41.99;;
67310;Laerm;65444;51.438;5.982;2023-06-14T00:52:35;39.67;37.25;42.23;;
67310;Laerm;65444;51.438;5.982;2023-06-14T00:52:46;39.05;35.69;41.79;;
67310;Laerm;65444;51.438;5.982;2023-06-14T00:52:56;37.47;35.00;39.99;;
67310;Laerm;65444;51.438;5.982;2023-06-14T00:53:08;36.55;34.29;40.28;;
67310;Laerm;65444;51.438;5.982;2023-06-14T00:53:18;36.79;34.44;39.96;;
67310;Laerm;65444;51.438;5.982;2023-06-14T00:53:30;34.47;32.65;36.43;;
67310;Laerm;65444;51.438;5.982;2023-06-14T00:53:44;36.98;32.42;46.19;;
67310;Laerm;65444;51.438;5.982;2023-06-14T00:53:57;39.22;31.94;45.68;;
67310;Laerm;65444;51.438;5.982;2023-06-14T00:54:08;43.35;30.85;58.72;;
67310;Laerm;65444;51.438;5.982;2023-06-14T00:54:18;48.36;30.86;61.43;;
67310;Laerm;65444;51.438;5.982;2023-06-14T00:54:29;32.35;30.94;39.73;;
67310;Laerm;65444;51.438;5.982;2023-06-14T00:54:39;32.67;30.51;41.97;;
67310;Laerm;65444;51.438;5.982;2023-06-14T00:54:50;32.91;30.89;34.71;;
67310;Laerm;65444;51.438;5.982;2023-06-14T00:55:01;33.25;30.89;35.91;;
67310;Laerm;65444;51.438;5.982;2023-06-14T00:55:11;32.65;31.38;34.31;;
67310;Laerm;65444;51.438;5.982;2023-06-14T00:55:22;32.75;30.12;36.68;;
67310;Laerm;65444;51.438;5.982;2023-06-14T00:55:33;32.45;30.69;33.97;;
67310;Laerm;65444;51.438;5.982;2023-06-14T00:56:16;33.91;31.77;38.52;;
67310;Laerm;65444;51.438;5.982;2023-06-14T00:56:31;32.63;30.98;36.01;;
67310;Laerm;65444;51.438;5.982;2023-06-14T00:56:41;32.59;30.31;38.35;;
67310;Laerm;65444;51.438;5.982;2023-06-14T00:56:53;37.95;30.25;46.59;;
67310;Laerm;65444;51.438;5.982;2023-06-14T00:57:04;38.23;31.45;45.04;;
67310;Laerm;65444;51.438;5.982;2023-06-14T00:57:14;37.24;33.09;44.95;;
67310;Laerm;65444;51.438;5.982;2023-06-14T00:57:25;37.89;32.20;42.25;;
67310;Laerm;65444;51.438;5.982;2023-06-14T00:57:36;32.19;30.59;33.68;;
67310;Laerm;65444;51.438;5.982;2023-06-14T00:57:48;31.55;29.85;33.24;;
67310;Laerm;65444;51.438;5.982;2023-06-14T00:57:59;31.88;30.36;33.27;;
67310;Laerm;65444;51.438;5.982;2023-06-14T00:58:10;32.00;30.38;34.04;;
67310;Laerm;65444;51.438;5.982;2023-06-14T00:59:15;33.87;29.81;54.02;;
67310;Laerm;65444;51.438;5.982;2023-06-14T00:59:25;31.69;29.95;33.05;;
67310;Laerm;65444;51.438;5.982;2023-06-14T00:59:42;31.62;30.15;35.09;;
67310;Laerm;65444;51.438;5.982;2023-06-14T00:59:53;31.23;29.39;35.46;;
67310;Laerm;65444;51.438;5.982;2023-06-14T01:00:04;32.10;29.60;42.76;;
67310;Laerm;65444;51.438;5.982;2023-06-14T01:00:19;34.26;29.27;44.64;;
67310;Laerm;65444;51.438;5.982;2023-06-14T01:00:29;31.85;30.36;35.38;;
67310;Laerm;65444;51.438;5.982;2023-06-14T01:00:39;31.51;29.85;34.48;;
67310;Laerm;65444;51.438;5.982;2023-06-14T01:00:50;31.08;29.70;32.47;;
67310;Laerm;65444;51.438;5.982;2023-06-14T01:01:07;31.57;30.17;34.45;;
67310;Laerm;65444;51.438;5.982;2023-06-14T01:01:17;31.45;29.88;32.96;;
67310;Laerm;65444;51.438;5.982;2023-06-14T01:01:28;31.51;29.98;33.16;;
67310;Laerm;65444;51.438;5.982;2023-06-14T01:01:39;31.46;30.26;32.72;;
67310;Laerm;65444;51.438;5.982;2023-06-14T01:01:56;32.06;29.91;37.35;;
67310;Laerm;65444;51.438;5.982;2023-06-14T01:02:07;32.63;29.96;40.42;;
67310;Laerm;65444;51.438;5.982;2023-06-14T01:02:17;32.50;30.56;38.59;;
67310;Laerm;65444;51.438;5.982;2023-06-14T01:02:36;31.85;30.33;37.54;;
67310;Laerm;65444;51.438;5.982;2023-06-14T01:02:47;31.66;29.99;34.61;;
67310;Laerm;65444;51.438;5.982;2023-06-14T01:02:59;31.80;30.08;34.74;;
67310;Laerm;65444;51.438;5.982;2023-06-14T01:03:10;31.71;29.90;34.91;;
67310;Laerm;65444;51.438;5.982;2023-06-14T01:03:22;31.96;29.27;38.91;;
67310;Laerm;65444;51.438;5.982;2023-06-14T01:03:33;38.92;30.92;46.59;;
67310;Laerm;65444;51.438;5.982;2023-06-14T01:03:44;41.08;30.40;55.74;;
67310;Laerm;65444;51.438;5.982;2023-06-14T01:03:55;41.64;30.70;58.27;;
67310;Laerm;65444;51.438;5.982;2023-06-14T01:04:06;36.63;30.67;44.33;;
67310;Laerm;65444;51.438;5.982;2023-06-14T01:04:16;39.26;30.90;46.21;;
67310;Laerm;65444;51.438;5.982;2023-06-14T01:04:35;40.51;30.23;49.51;;
67310;Laerm;65444;51.438;5.982;2023-06-14T01:04:46;34.84;29.35;45.56;;
67310;Laerm;65444;51.438;5.982;2023-06-14T01:05:00;32.27;29.73;35.28;;
67310;Laerm;65444;51.438;5.982;2023-06-14T01:05:11;31.44;30.12;33.07;;
67310;Laerm;65444;51.438;5.982;2023-06-14T01:05:22;31.41;29.88;32.81;;
67310;Laerm;65444;51.438;5.982;2023-06-14T01:05:40;32.00;30.11;34.12;;
67310;Laerm;65444;51.438;5.982;2023-06-14T01:05:56;31.56;29.97;33.03;;
67310;Laerm;65444;51.438;5.982;2023-06-14T01:06:18;31.76;29.72;34.03;;
67310;Laerm;65444;51.438;5.982;2023-06-14T01:06:59;32.51;30.71;34.36;;
67310;Laerm;65444;51.438;5.982;2023-06-14T01:08:24;35.36;29.56;47.57;;
67310;Laerm;65444;51.438;5.982;2023-06-14T01:08:40;31.70;30.05;35.75;;
67310;Laerm;65444;51.438;5.982;2023-06-14T01:13:11;40.95;34.61;53.79;;
67310;Laerm;65444;51.438;5.982;2023-06-14T01:13:35;32.01;30.05;34.96;;
67310;Laerm;65444;51.438;5.982;2023-06-14T01:13:47;32.05;30.14;33.81;;
67310;Laerm;65444;51.438;5.982;2023-06-14T01:13:59;31.77;30.29;33.20;;
67310;Laerm;65444;51.438;5.982;2023-06-14T01:15:03;32.40;29.92;38.47;;
67310;Laerm;65444;51.438;5.982;2023-06-14T01:15:13;31.92;29.83;33.37;;
67310;Laerm;65444;51.438;5.982;2023-06-14T01:15:25;32.18;30.59;33.71;;
67310;Laerm;65444;51.438;5.982;2023-06-14T01:15:37;32.26;30.80;34.28;;